createdAt,value
2022-09-12T00:00:44.627Z,13.41
2022-09-12T00:03:11.053Z,13.41
2022-09-12T00:05:42.457Z,13.13
2022-09-12T00:08:08.985Z,13.11
2022-09-12T00:10:43.689Z,13.13
2022-09-12T00:13:10.721Z,13.02
2022-09-12T00:15:44.552Z,13.01
2022-09-12T00:21:58.741Z,12.95
2022-09-12T00:28:13.023Z,13.03
2022-09-12T00:30:43.475Z,12.98
2022-09-12T00:33:10.905Z,12.95
2022-09-12T00:35:48.799Z,12.88
2022-09-12T00:38:16.549Z,12.77
2022-09-12T00:40:43.527Z,12.70
2022-09-12T00:43:13.777Z,12.75
2022-09-12T00:45:42.490Z,12.83
2022-09-12T00:48:19.335Z,12.91
2022-09-12T00:50:45.787Z,12.77
2022-09-12T00:57:03.156Z,12.83
2022-09-12T00:59:32.760Z,12.65
2022-09-12T01:01:59.241Z,12.65
2022-09-12T01:04:26.411Z,12.72
2022-09-12T01:06:53.491Z,12.88
2022-09-12T01:09:22.157Z,12.69
2022-09-12T01:11:49.420Z,12.49
2022-09-12T01:14:17.143Z,12.54
2022-09-12T01:16:45.122Z,12.42
2022-09-12T01:19:31.761Z,12.43
2022-09-12T01:22:22.954Z,12.61
2022-09-12T01:25:12.553Z,12.52
2022-09-12T01:27:53.443Z,12.43
2022-09-12T01:30:32.224Z,12.46
2022-09-12T01:33:20.506Z,12.39
2022-09-12T01:36:02.154Z,12.22
2022-09-12T01:38:39.646Z,12.16
2022-09-12T01:41:30.542Z,12.39
2022-09-12T01:44:38.539Z,12.29
2022-09-12T01:47:18.540Z,12.33
2022-09-12T01:49:50.213Z,12.38
2022-09-12T01:52:26.668Z,12.18
2022-09-12T01:55:09.622Z,12.13
2022-09-12T01:57:45.739Z,12.03
2022-09-12T02:00:12.944Z,12.09
2022-09-12T02:02:42.170Z,12.15
2022-09-12T02:05:12.647Z,12.20
2022-09-12T02:07:43.959Z,12.19
2022-09-12T02:10:17.047Z,12.32
2022-09-12T02:12:50.569Z,12.40
2022-09-12T02:15:19.319Z,12.34
2022-09-12T02:21:27.518Z,12.32
2022-09-12T02:23:57.493Z,12.24
2022-09-12T02:26:29.989Z,12.19
2022-09-12T02:28:57.575Z,12.27
2022-09-12T02:31:47.007Z,12.18
2022-09-12T02:34:16.449Z,12.12
2022-09-12T02:37:16.244Z,12.17
2022-09-12T02:39:45.380Z,12.16
2022-09-12T02:42:12.627Z,12.30
2022-09-12T02:44:39.407Z,12.25
2022-09-12T02:47:10.075Z,12.28
2022-09-12T02:49:36.817Z,12.15
2022-09-12T02:52:03.491Z,12.12
2022-09-12T02:54:30.504Z,12.11
2022-09-12T02:56:56.949Z,12.10
2022-09-12T02:59:24.574Z,12.20
2022-09-12T03:01:54.043Z,12.11
2022-09-12T03:04:38.634Z,12.16
2022-09-12T03:07:14.075Z,12.21
2022-09-12T03:10:02.410Z,12.11
2022-09-12T03:12:44.134Z,12.10
2022-09-12T03:19:19.816Z,11.79
2022-09-12T03:21:54.919Z,11.67
2022-09-12T03:24:30.966Z,11.74
2022-09-12T03:27:09.576Z,11.60
2022-09-12T03:29:37.612Z,11.80
2022-09-12T03:32:04.378Z,11.78
2022-09-12T03:34:30.803Z,11.73
2022-09-12T03:36:57.276Z,11.70
2022-09-12T03:39:24.650Z,11.79
2022-09-12T03:41:51.560Z,11.64
2022-09-12T03:44:18.396Z,11.61
2022-09-12T03:46:45.185Z,11.51
2022-09-12T03:49:12.040Z,11.68
2022-09-12T03:51:39.354Z,11.77
2022-09-12T03:57:46.574Z,11.44
2022-09-12T04:00:17.637Z,11.53
2022-09-12T04:02:46.058Z,11.45
2022-09-12T04:05:12.450Z,11.58
2022-09-12T04:07:38.881Z,11.47
2022-09-12T04:10:05.786Z,11.42
2022-09-12T04:12:32.181Z,11.51
2022-09-12T04:15:22.526Z,11.42
2022-09-12T04:17:48.949Z,11.30
2022-09-12T04:20:15.626Z,11.33
2022-09-12T04:22:42.083Z,11.46
2022-09-12T04:25:09.499Z,11.47
2022-09-12T04:27:35.942Z,11.44
2022-09-12T04:30:16.850Z,11.41
2022-09-12T04:32:43.276Z,11.47
2022-09-12T04:35:11.211Z,11.37
2022-09-12T04:37:37.603Z,11.43
2022-09-12T04:43:58.158Z,11.50
2022-09-12T04:46:25.622Z,11.54
2022-09-12T04:48:56.676Z,11.56
2022-09-12T04:51:29.602Z,11.59
2022-09-12T04:57:36.686Z,11.40
2022-09-12T05:00:07.333Z,11.59
2022-09-12T05:02:34.557Z,11.58
2022-09-12T05:05:01.008Z,11.57
2022-09-12T05:07:27.405Z,11.67
2022-09-12T05:09:55.520Z,11.59
2022-09-12T05:12:21.992Z,11.58
2022-09-12T05:14:48.445Z,11.59
2022-09-12T05:17:14.852Z,11.55
2022-09-12T05:19:41.531Z,11.60
2022-09-12T05:22:11.071Z,11.57
2022-09-12T05:24:39.394Z,11.74
2022-09-12T05:31:19.067Z,11.59
2022-09-12T05:33:47.760Z,11.63
2022-09-12T05:36:17.688Z,11.82
2022-09-12T05:38:45.020Z,11.69
2022-09-12T05:41:25.030Z,11.78
2022-09-12T05:43:53.611Z,11.78
2022-09-12T05:46:22.062Z,11.78
2022-09-12T05:48:55.055Z,11.83
2022-09-12T05:51:25.373Z,11.80
2022-09-12T05:54:00.776Z,11.83
2022-09-12T05:56:29.015Z,11.89
2022-09-12T05:58:59.064Z,11.93
2022-09-12T06:01:27.309Z,11.97
2022-09-12T06:07:41.208Z,12.02
2022-09-12T06:10:08.307Z,12.06
2022-09-12T06:12:34.710Z,12.26
2022-09-12T06:15:01.147Z,12.24
2022-09-12T06:17:27.610Z,12.23
2022-09-12T06:19:54.105Z,12.34
2022-09-12T06:22:21.013Z,12.42
2022-09-12T06:24:47.415Z,12.45
2022-09-12T06:27:13.834Z,12.62
2022-09-12T06:29:40.247Z,12.76
2022-09-12T06:32:07.165Z,12.90
2022-09-12T06:34:33.824Z,12.97
2022-09-12T06:37:00.295Z,13.06
2022-09-12T06:39:26.694Z,13.13
2022-09-12T06:41:53.131Z,13.30
2022-09-12T06:44:21.891Z,13.45
2022-09-12T06:46:48.790Z,13.47
2022-09-12T06:49:15.430Z,13.57
2022-09-12T06:51:42.579Z,13.79
2022-09-12T06:54:10.641Z,13.80
2022-09-12T06:56:37.664Z,13.82
2022-09-12T06:59:04.075Z,13.92
2022-09-12T07:01:32.213Z,14.04
2022-09-12T07:04:03.806Z,14.15
2022-09-12T07:06:35.394Z,14.25
2022-09-12T07:09:05.845Z,14.27
2022-09-12T07:11:34.834Z,14.32
2022-09-12T07:14:03.022Z,14.50
2022-09-12T07:16:30.349Z,14.61
2022-09-12T07:18:58.952Z,14.70
2022-09-12T07:21:25.813Z,14.79
2022-09-12T07:23:52.779Z,14.86
2022-09-12T07:26:19.231Z,14.94
2022-09-12T07:28:45.817Z,15.11
2022-09-12T07:31:15.319Z,15.21
2022-09-12T07:33:42.602Z,15.42
2022-09-12T07:36:14.656Z,15.55
2022-09-12T07:38:41.661Z,15.65
2022-09-12T07:41:11.874Z,15.65
2022-09-12T07:43:38.289Z,15.84
2022-09-12T07:46:04.971Z,15.97
2022-09-12T07:48:31.409Z,16.07
2022-09-12T07:50:59.781Z,16.05
2022-09-12T07:53:27.306Z,16.16
2022-09-12T07:55:55.423Z,16.19
2022-09-12T07:58:23.205Z,16.24
2022-09-12T08:00:50.389Z,16.21
2022-09-12T08:03:17.031Z,16.31
2022-09-12T08:05:43.593Z,16.40
2022-09-12T08:08:10.194Z,16.46
2022-09-12T08:10:36.867Z,16.48
2022-09-12T08:13:03.738Z,16.59
2022-09-12T08:15:31.153Z,16.60
2022-09-12T08:17:57.621Z,16.68
2022-09-12T08:20:28.117Z,16.75
2022-09-12T08:22:54.859Z,16.91
2022-09-12T08:25:21.598Z,16.79
2022-09-12T08:27:48.331Z,16.90
2022-09-12T08:30:14.863Z,16.83
2022-09-12T08:32:41.323Z,16.98
2022-09-12T08:35:08.063Z,17.09
2022-09-12T08:37:34.492Z,17.19
2022-09-12T08:40:01.006Z,17.27
2022-09-12T08:42:50.711Z,17.49
2022-09-12T08:45:28.268Z,17.54
2022-09-12T08:47:56.196Z,17.67
2022-09-12T08:50:22.763Z,17.81
2022-09-12T08:52:53.148Z,17.87
2022-09-12T08:55:33.737Z,17.89
2022-09-12T08:58:20.105Z,17.91
2022-09-12T09:01:08.761Z,18.03
2022-09-12T09:04:02.689Z,18.08
2022-09-12T09:06:35.055Z,18.07
2022-09-12T09:09:07.648Z,18.32
2022-09-12T09:11:49.236Z,18.37
2022-09-12T09:14:43.348Z,18.35
2022-09-12T09:17:14.526Z,18.78
2022-09-12T09:19:50.786Z,18.67
2022-09-12T09:22:28.882Z,18.94
2022-09-12T09:25:00.076Z,19.08
2022-09-12T09:27:41.020Z,18.96
2022-09-12T09:30:16.908Z,19.03
2022-09-12T09:32:45.717Z,19.37
2022-09-12T09:35:19.457Z,19.54
2022-09-12T09:37:59.164Z,19.71
2022-09-12T09:40:35.882Z,19.77
2022-09-12T09:43:28.888Z,19.83
2022-09-12T09:45:57.071Z,19.94
2022-09-12T09:48:44.646Z,19.88
2022-09-12T09:51:11.875Z,19.98
2022-09-12T09:53:47.706Z,20.03
2022-09-12T09:56:33.826Z,20.36
2022-09-12T09:59:12.568Z,20.73
2022-09-12T10:01:49.766Z,20.84
2022-09-12T10:04:29.399Z,21.43
2022-09-12T10:07:01.228Z,21.30
2022-09-12T10:09:29.612Z,21.37
2022-09-12T10:11:57.136Z,21.80
2022-09-12T10:14:33.524Z,21.79
2022-09-12T10:16:59.966Z,21.88
2022-09-12T10:19:42.914Z,22.40
2022-09-12T10:22:18.452Z,22.30
2022-09-12T10:24:50.550Z,22.40
2022-09-12T10:27:21.011Z,22.42
2022-09-12T10:29:55.909Z,22.20
2022-09-12T10:32:31.765Z,22.46
2022-09-12T10:35:04.014Z,22.60
2022-09-12T10:37:33.495Z,22.46
2022-09-12T10:40:00.923Z,22.61
2022-09-12T10:42:47.686Z,23.12
2022-09-12T10:45:24.740Z,23.52
2022-09-12T10:47:55.346Z,23.60
2022-09-12T10:50:23.909Z,23.68
2022-09-12T10:52:50.793Z,23.79
2022-09-12T10:55:17.613Z,23.76
2022-09-12T10:58:05.014Z,23.75
2022-09-12T11:00:37.560Z,23.61
2022-09-12T11:03:16.140Z,23.78
2022-09-12T11:05:55.166Z,24.16
2022-09-12T11:08:41.895Z,24.38
2022-09-12T11:11:28.366Z,24.46
2022-09-12T11:14:23.031Z,24.14
2022-09-12T11:17:01.294Z,24.61
2022-09-12T11:19:34.433Z,24.99
2022-09-12T11:22:31.912Z,25.11
2022-09-12T11:25:11.921Z,25.12
2022-09-12T11:28:00.196Z,25.37
2022-09-12T11:34:17.885Z,26.01
2022-09-12T11:37:10.447Z,26.41
2022-09-12T11:39:44.570Z,26.05
2022-09-12T11:42:22.573Z,25.20
2022-09-12T11:45:13.722Z,25.48
2022-09-12T11:47:40.858Z,25.74
2022-09-12T11:50:27.909Z,26.08
2022-09-12T11:52:58.161Z,25.80
2022-09-12T11:55:28.242Z,25.36
2022-09-12T11:57:56.593Z,26.10
2022-09-12T12:00:36.690Z,26.61
2022-09-12T12:03:21.169Z,26.87
2022-09-12T12:06:06.909Z,27.77
2022-09-12T12:08:39.386Z,27.21
2022-09-12T12:11:06.583Z,27.16
2022-09-12T12:13:47.800Z,27.61
2022-09-12T12:16:23.310Z,28.82
2022-09-12T12:18:58.428Z,29.44
2022-09-12T12:21:31.680Z,30.23
2022-09-12T12:24:07.125Z,29.87
2022-09-12T12:26:39.670Z,29.18
2022-09-12T12:32:46.670Z,30.44
2022-09-12T12:35:40.407Z,29.76
2022-09-12T12:38:35.647Z,29.23
2022-09-12T12:41:17.160Z,29.49
2022-09-12T12:43:51.442Z,28.62
2022-09-12T12:46:22.696Z,28.93
2022-09-12T12:48:55.361Z,29.97
2022-09-12T12:51:27.864Z,30.45
2022-09-12T12:53:54.442Z,31.02
2022-09-12T12:56:27.843Z,30.85
2022-09-12T12:59:03.353Z,30.66
2022-09-12T13:01:30.440Z,30.64
2022-09-12T13:04:01.322Z,31.23
2022-09-12T13:06:36.395Z,30.80
2022-09-12T13:09:06.977Z,31.14
2022-09-12T13:11:35.834Z,30.90
2022-09-12T13:14:04.803Z,31.70
2022-09-12T13:16:39.851Z,30.74
2022-09-12T13:19:18.376Z,30.83
2022-09-12T13:22:00.569Z,29.52
2022-09-12T13:24:27.185Z,31.37
2022-09-12T13:26:54.618Z,31.23
2022-09-12T13:29:25.521Z,32.14
2022-09-12T13:31:59.652Z,31.85
2022-09-12T13:34:31.857Z,31.68
2022-09-12T13:37:26.222Z,31.44
2022-09-12T13:40:11.609Z,32.82
2022-09-12T13:42:42.761Z,32.49
2022-09-12T13:45:13.606Z,33.29
2022-09-12T13:47:43.027Z,32.50
2022-09-12T13:50:23.667Z,32.15
2022-09-12T13:52:53.722Z,32.58
2022-09-12T13:55:25.657Z,32.19
2022-09-12T13:58:03.841Z,32.01
2022-09-12T14:00:32.135Z,32.16
2022-09-12T14:03:18.186Z,31.54
2022-09-12T14:05:46.770Z,31.46
2022-09-12T14:08:14.938Z,30.38
2022-09-12T14:10:45.182Z,29.02
2022-09-12T14:13:16.924Z,29.12
2022-09-12T14:15:49.076Z,29.16
2022-09-12T14:18:27.340Z,29.03
2022-09-12T14:21:00.808Z,30.70
2022-09-12T14:23:32.147Z,31.04
2022-09-12T14:26:02.468Z,30.64
2022-09-12T14:28:30.230Z,29.60
2022-09-12T14:31:12.815Z,28.33
2022-09-12T14:33:56.947Z,28.06
2022-09-12T14:36:34.328Z,28.61
2022-09-12T14:39:06.148Z,29.22
2022-09-12T14:41:39.102Z,29.99
2022-09-12T14:44:08.535Z,30.15
2022-09-12T14:46:36.464Z,29.58
2022-09-12T14:49:10.335Z,28.78
2022-09-12T14:51:39.038Z,29.06
2022-09-12T14:54:05.738Z,28.72
2022-09-12T14:56:44.024Z,28.13
2022-09-12T14:59:40.713Z,27.67
2022-09-12T15:02:13.320Z,27.70
2022-09-12T15:04:50.445Z,27.31
2022-09-12T15:07:34.590Z,27.15
2022-09-12T15:10:05.314Z,27.08
2022-09-12T15:12:32.061Z,27.58
2022-09-12T15:15:13.423Z,26.85
2022-09-12T15:17:39.814Z,26.52
2022-09-12T15:20:06.851Z,26.45
2022-09-12T15:22:33.817Z,26.62
2022-09-12T15:25:00.495Z,26.57
2022-09-12T15:27:26.981Z,26.58
2022-09-12T15:29:53.953Z,26.93
2022-09-12T15:32:29.369Z,27.79
2022-09-12T15:34:56.040Z,28.78
2022-09-12T15:37:24.143Z,29.64
2022-09-12T15:43:37.912Z,31.03
2022-09-12T15:46:06.704Z,31.26
2022-09-12T15:48:33.458Z,31.38
2022-09-12T15:54:41.036Z,31.10
2022-09-12T15:57:07.930Z,31.26
2022-09-12T15:59:34.355Z,30.58
2022-09-12T16:02:01.202Z,30.34
2022-09-12T16:04:29.298Z,30.21
2022-09-12T16:06:56.663Z,29.76
2022-09-12T16:09:24.012Z,29.54
2022-09-12T16:11:50.784Z,28.48
2022-09-12T16:14:18.541Z,28.92
2022-09-12T16:16:52.122Z,29.70
2022-09-12T16:19:18.586Z,30.25
2022-09-12T16:21:45.000Z,29.33
2022-09-12T16:24:11.757Z,28.51
2022-09-12T16:26:38.360Z,27.58
2022-09-12T16:32:52.263Z,26.22
2022-09-12T16:38:59.373Z,25.30
2022-09-12T16:41:26.288Z,25.20
2022-09-12T16:43:53.233Z,25.25
2022-09-12T16:46:22.054Z,25.38
2022-09-12T16:48:52.436Z,26.21
2022-09-12T16:51:22.130Z,27.39
2022-09-12T16:53:49.118Z,27.70
2022-09-12T16:56:15.560Z,27.70
2022-09-12T16:58:42.865Z,26.79
2022-09-12T17:01:14.897Z,25.84
2022-09-12T17:03:41.848Z,25.19
2022-09-12T17:06:18.025Z,24.86
2022-09-12T17:08:46.841Z,24.45
2022-09-12T17:11:18.694Z,24.35
2022-09-12T17:17:31.928Z,24.07
2022-09-12T17:19:58.459Z,23.71
2022-09-12T17:22:24.898Z,23.49
2022-09-12T17:24:51.413Z,23.47
2022-09-12T17:27:17.862Z,23.15
2022-09-12T17:29:44.398Z,23.08
2022-09-12T17:32:14.405Z,22.84
2022-09-12T17:34:43.345Z,22.62
2022-09-12T17:37:09.919Z,22.39
2022-09-12T17:43:24.132Z,22.11
2022-09-12T17:45:56.478Z,22.01
2022-09-12T17:48:23.250Z,22.01
2022-09-12T17:50:50.629Z,21.82
2022-09-12T17:53:17.892Z,21.73
2022-09-12T17:56:40.615Z,21.57
2022-09-12T17:59:08.622Z,21.27
2022-09-12T18:01:53.730Z,21.18
2022-09-12T18:04:20.435Z,21.16
2022-09-12T18:06:50.326Z,21.09
2022-09-12T18:13:03.899Z,20.63
2022-09-12T18:15:31.093Z,20.50
2022-09-12T18:17:57.499Z,20.38
2022-09-12T18:20:23.906Z,20.29
2022-09-12T18:22:50.357Z,20.24
2022-09-12T18:25:16.856Z,20.22
2022-09-12T18:27:43.384Z,20.06
2022-09-12T18:30:20.976Z,20.00
2022-09-12T18:32:47.813Z,19.93
2022-09-12T18:35:14.321Z,19.89
2022-09-12T18:37:41.442Z,19.91
2022-09-12T18:40:08.228Z,19.90
2022-09-12T18:42:34.782Z,19.69
2022-09-12T18:45:01.288Z,19.61
2022-09-12T18:47:27.757Z,19.36
2022-09-12T18:49:54.493Z,19.09
2022-09-12T18:56:08.580Z,19.07
2022-09-12T18:58:40.653Z,19.02
2022-09-12T19:01:10.678Z,19.04
2022-09-12T19:03:37.245Z,18.96
2022-09-12T19:06:27.738Z,18.94
2022-09-12T19:08:56.183Z,18.97
2022-09-12T19:11:23.867Z,18.72
2022-09-12T19:17:36.965Z,18.74
2022-09-12T19:20:04.528Z,18.77
2022-09-12T19:22:30.931Z,18.68
2022-09-12T19:24:57.366Z,18.80
2022-09-12T19:27:23.822Z,18.76
2022-09-12T19:33:37.761Z,18.50
2022-09-12T19:36:13.854Z,18.40
2022-09-12T19:38:53.139Z,18.53
2022-09-12T19:41:20.282Z,18.65
2022-09-12T19:43:46.666Z,18.51
2022-09-12T19:46:16.218Z,18.37
2022-09-12T19:48:42.651Z,18.35
2022-09-12T19:51:09.069Z,18.34
2022-09-12T19:53:35.514Z,18.20
2022-09-12T19:56:04.363Z,18.19
2022-09-12T20:02:18.455Z,18.19
2022-09-12T20:04:47.334Z,18.12
2022-09-12T20:07:13.705Z,17.99
2022-09-12T20:09:40.099Z,17.95
2022-09-12T20:15:47.313Z,18.07
2022-09-12T20:18:14.025Z,17.98
2022-09-12T20:20:40.422Z,17.92
2022-09-12T20:23:06.798Z,17.98
2022-09-12T20:25:33.223Z,18.08
2022-09-12T20:28:00.340Z,17.87
2022-09-12T20:34:16.460Z,17.80
2022-09-12T20:36:42.883Z,17.84
2022-09-12T20:42:57.012Z,17.58
2022-09-12T20:45:23.423Z,17.65
2022-09-12T20:47:49.828Z,17.73
2022-09-12T20:50:16.473Z,17.70
2022-09-12T20:52:42.859Z,17.79
2022-09-12T20:55:12.706Z,17.75
2022-09-12T20:57:39.138Z,17.87
2022-09-12T21:03:53.173Z,17.72
2022-09-12T21:06:20.393Z,17.73
2022-09-12T21:08:48.162Z,17.75
2022-09-12T21:11:15.118Z,17.77
2022-09-12T21:13:41.741Z,17.75
2022-09-12T21:16:16.818Z,17.78
2022-09-12T21:18:43.377Z,17.56
2022-09-12T21:21:11.222Z,17.58
2022-09-12T21:23:37.838Z,17.73
2022-09-12T21:26:04.610Z,17.71
2022-09-12T21:28:31.395Z,17.64
2022-09-12T21:30:58.093Z,17.72
2022-09-12T21:33:24.875Z,17.49
2022-09-12T21:35:51.268Z,17.57
2022-09-12T21:38:18.937Z,17.62
2022-09-12T21:40:46.657Z,17.62
2022-09-12T21:43:13.642Z,17.63
2022-09-12T21:45:40.382Z,17.62
2022-09-12T21:48:06.948Z,17.55
2022-09-12T21:50:33.349Z,17.57
2022-09-12T21:52:59.818Z,17.67
2022-09-12T21:55:27.215Z,17.72
2022-09-12T21:57:54.710Z,17.65
2022-09-12T22:00:21.979Z,17.70
2022-09-12T22:02:48.830Z,17.61
2022-09-12T22:05:16.109Z,17.68
2022-09-12T22:07:42.540Z,17.67
2022-09-12T22:10:09.378Z,17.72
2022-09-12T22:12:35.827Z,17.76
2022-09-12T22:15:17.535Z,17.72
2022-09-12T22:17:48.637Z,17.62
2022-09-12T22:20:15.078Z,17.66
2022-09-12T22:23:00.003Z,17.52
2022-09-12T22:25:26.560Z,17.43
2022-09-12T22:27:54.005Z,17.40
2022-09-12T22:30:21.742Z,17.49
2022-09-12T22:32:49.894Z,17.34
2022-09-12T22:35:17.070Z,17.34
2022-09-12T22:37:43.544Z,17.42
2022-09-12T22:40:11.675Z,17.43
2022-09-12T22:42:38.301Z,17.51
2022-09-12T22:45:05.842Z,17.53
2022-09-12T22:47:32.265Z,17.53
2022-09-12T22:49:58.823Z,17.44
2022-09-12T22:52:25.199Z,17.37
2022-09-12T22:54:52.027Z,17.29
2022-09-12T22:57:18.441Z,17.11
2022-09-12T22:59:44.836Z,17.05
2022-09-12T23:02:11.213Z,17.02
2022-09-12T23:04:37.737Z,17.03
2022-09-12T23:07:04.175Z,16.87
2022-09-12T23:09:35.150Z,16.83
2022-09-12T23:12:02.056Z,16.88
2022-09-12T23:14:28.440Z,16.91
2022-09-12T23:16:54.859Z,16.86
2022-09-12T23:19:21.251Z,16.94
2022-09-12T23:21:47.666Z,17.01
2022-09-12T23:24:14.522Z,17.03
2022-09-12T23:30:28.547Z,17.16
2022-09-12T23:32:56.231Z,17.24
2022-09-12T23:35:22.714Z,17.22
2022-09-12T23:37:49.078Z,17.33
2022-09-12T23:40:15.583Z,17.21
2022-09-12T23:42:42.072Z,17.26
2022-09-12T23:45:08.916Z,17.21
2022-09-12T23:47:35.304Z,17.28
2022-09-12T23:50:01.737Z,17.24
2022-09-12T23:52:28.302Z,17.28
2022-09-12T23:54:54.715Z,17.38
2022-09-12T23:57:21.115Z,17.40
2022-09-12T23:59:47.522Z,17.43
